createdAt,value
2018-04-23T00:03:35.488Z,16.80
2018-04-23T00:07:38.016Z,16.80
2018-04-23T00:11:40.566Z,16.80
2018-04-23T00:15:43.077Z,16.80
2018-04-23T00:19:46.385Z,16.70
2018-04-23T00:23:48.915Z,16.70
2018-04-23T00:27:51.448Z,16.70
2018-04-23T00:31:54.771Z,16.70
2018-04-23T00:35:57.280Z,16.70
2018-04-23T00:39:59.820Z,16.80
2018-04-23T00:44:02.359Z,16.80
2018-04-23T00:48:04.899Z,16.80
2018-04-23T00:52:07.436Z,16.70
2018-04-23T00:56:09.946Z,16.80
2018-04-23T01:00:13.252Z,16.70
2018-04-23T01:04:16.551Z,16.70
2018-04-23T01:08:19.861Z,16.70
2018-04-23T01:12:23.181Z,16.70
2018-04-23T01:16:25.698Z,16.70
2018-04-23T01:20:28.241Z,16.70
2018-04-23T01:24:30.784Z,16.70
2018-04-23T01:28:33.332Z,16.70
2018-04-23T01:32:35.883Z,16.70
2018-04-23T01:36:39.200Z,16.70
2018-04-23T01:40:42.287Z,16.70
2018-04-23T01:44:45.601Z,16.70
2018-04-23T01:48:48.908Z,16.80
2018-04-23T01:52:51.464Z,16.70
2018-04-23T01:56:54.002Z,16.80
2018-04-23T02:00:56.523Z,16.80
2018-04-23T02:04:59.060Z,16.80
2018-04-23T02:09:01.625Z,16.80
2018-04-23T02:13:04.950Z,16.80
2018-04-23T02:17:07.488Z,16.80
2018-04-23T02:21:10.008Z,16.90
2018-04-23T02:25:12.548Z,16.90
2018-04-23T02:29:15.083Z,16.90
2018-04-23T02:33:17.647Z,16.90
2018-04-23T02:37:20.959Z,17.00
2018-04-23T02:41:23.488Z,16.90
2018-04-23T02:45:26.036Z,17.00
2018-04-23T02:49:29.339Z,17.10
2018-04-23T02:53:31.887Z,17.00
2018-04-23T02:57:34.437Z,17.10
2018-04-23T03:01:36.973Z,17.10
2018-04-23T03:05:40.280Z,17.20
2018-04-23T03:09:43.590Z,17.20
2018-04-23T03:13:46.892Z,17.20
2018-04-23T03:17:50.199Z,17.20
2018-04-23T03:21:53.493Z,17.10
2018-04-23T03:25:56.801Z,17.10
2018-04-23T03:30:00.108Z,17.00
2018-04-23T03:34:02.681Z,17.00
2018-04-23T03:38:05.979Z,17.00
2018-04-23T03:42:09.263Z,17.00
2018-04-23T03:46:11.808Z,16.90
2018-04-23T03:50:14.352Z,17.00
2018-04-23T03:54:16.909Z,16.90
2018-04-23T03:58:19.457Z,16.90
2018-04-23T04:02:21.977Z,16.90
2018-04-23T04:06:24.520Z,16.90
2018-04-23T04:10:27.061Z,16.90
2018-04-23T04:14:41.309Z,16.80
2018-04-23T04:18:45.676Z,16.80
2018-04-23T04:22:48.195Z,16.80
2018-04-23T04:26:51.604Z,16.80
2018-04-23T04:30:54.142Z,16.80
2018-04-23T04:34:56.684Z,16.70
2018-04-23T04:38:59.228Z,16.70
2018-04-23T04:43:01.755Z,16.70
2018-04-23T04:47:04.298Z,16.70
2018-04-23T04:51:06.864Z,16.70
2018-04-23T04:55:10.172Z,16.70
2018-04-23T04:59:13.481Z,16.70
2018-04-23T05:03:16.780Z,16.70
2018-04-23T05:07:20.088Z,16.70
2018-04-23T05:11:23.399Z,16.70
2018-04-23T05:15:25.941Z,16.70
2018-04-23T05:19:28.484Z,16.70
2018-04-23T05:23:31.004Z,16.70
2018-04-23T05:27:33.535Z,16.70
2018-04-23T05:31:36.096Z,16.80
2018-04-23T05:35:39.426Z,16.80
2018-04-23T05:39:41.964Z,16.80
2018-04-23T05:43:44.492Z,16.80
2018-04-23T05:47:47.028Z,16.90
2018-04-23T05:51:49.566Z,16.90
2018-04-23T05:55:52.116Z,16.90
2018-04-23T05:59:54.656Z,16.90
2018-04-23T06:03:57.185Z,16.90
2018-04-23T06:07:59.726Z,16.80
2018-04-23T06:12:03.385Z,16.80
2018-04-23T06:16:05.918Z,16.80
2018-04-23T06:20:08.460Z,16.80
2018-04-23T06:24:10.978Z,16.80
2018-04-23T06:28:13.572Z,16.80
2018-04-23T06:32:16.844Z,16.80
2018-04-23T06:36:20.146Z,16.90
2018-04-23T06:40:23.456Z,17.00
2018-04-23T06:44:26.748Z,17.00
2018-04-23T06:48:30.057Z,17.10
2018-04-23T06:52:33.370Z,17.20
2018-04-23T06:56:35.912Z,17.20
2018-04-23T07:00:38.447Z,17.30
2018-04-23T07:04:41.014Z,17.30
2018-04-23T07:08:44.299Z,17.40
2018-04-23T07:12:46.840Z,17.30
2018-04-23T07:16:49.392Z,17.40
2018-04-23T07:20:52.702Z,17.60
2018-04-23T07:24:55.255Z,17.50
2018-04-23T07:28:57.771Z,17.60
2018-04-23T07:33:00.315Z,17.70
2018-04-23T07:37:02.857Z,17.80
2018-04-23T07:41:05.408Z,17.80
2018-04-23T07:45:08.707Z,17.80
2018-04-23T07:49:11.232Z,17.70
2018-04-23T07:53:13.800Z,17.80
2018-04-23T07:57:16.335Z,17.80
2018-04-23T08:01:18.873Z,17.70
2018-04-23T08:05:21.411Z,17.80
2018-04-23T08:09:23.926Z,17.70
2018-04-23T08:13:27.237Z,17.80
2018-04-23T08:17:29.787Z,17.80
2018-04-23T08:21:32.327Z,17.90
2018-04-23T08:25:34.871Z,18.00
2018-04-23T08:29:37.384Z,18.20
2018-04-23T08:33:39.924Z,18.30
2018-04-23T08:37:42.465Z,18.40
2018-04-23T08:41:44.996Z,18.60
2018-04-23T08:45:47.540Z,18.60
2018-04-23T08:49:50.058Z,18.70
2018-04-23T08:53:52.595Z,18.90
2018-04-23T08:57:55.132Z,19.00
2018-04-23T09:01:57.664Z,19.10
2018-04-23T09:06:00.200Z,19.10
2018-04-23T09:10:02.724Z,19.10
2018-04-23T09:14:06.023Z,19.30
2018-04-23T09:18:09.321Z,19.30
2018-04-23T09:22:12.625Z,19.50
2018-04-23T09:26:15.928Z,19.50
2018-04-23T09:30:19.220Z,19.60
2018-04-23T09:34:22.524Z,19.60
2018-04-23T09:38:25.820Z,19.70
2018-04-23T09:42:28.351Z,19.60
2018-04-23T09:46:30.901Z,19.80
2018-04-23T09:50:34.209Z,19.90
2018-04-23T09:54:37.491Z,20.20
2018-04-23T09:58:40.053Z,20.10
2018-04-23T10:02:42.583Z,20.40
2018-04-23T10:06:45.885Z,20.60
2018-04-23T10:10:48.424Z,20.60
2018-04-23T10:14:50.952Z,20.60
2018-04-23T10:18:54.247Z,20.60
2018-04-23T10:22:57.557Z,20.70
2018-04-23T10:27:00.855Z,20.80
2018-04-23T10:31:04.159Z,21.10
2018-04-23T10:35:07.441Z,21.20
2018-04-23T10:39:09.985Z,21.20
2018-04-23T10:43:12.528Z,21.40
2018-04-23T10:51:25.599Z,21.50
2018-04-23T10:55:28.111Z,21.40
2018-04-23T10:59:30.642Z,21.50
2018-04-23T11:03:33.168Z,21.60
2018-04-23T11:07:35.721Z,21.70
2018-04-23T11:11:39.713Z,22.00
2018-04-23T11:15:42.233Z,21.90
2018-04-23T11:19:45.543Z,22.10
2018-04-23T11:23:48.854Z,22.10
2018-04-23T11:27:51.405Z,22.10
2018-04-23T11:31:53.963Z,22.30
2018-04-23T11:36:05.108Z,22.40
2018-04-23T11:40:07.639Z,22.50
2018-04-23T11:44:10.176Z,22.60
2018-04-23T11:48:12.717Z,22.60
2018-04-23T11:52:15.265Z,22.60
2018-04-23T11:56:17.804Z,22.60
2018-04-23T12:00:20.315Z,22.60
2018-04-23T12:04:23.008Z,22.70
2018-04-23T12:08:25.551Z,22.70
2018-04-23T12:12:28.113Z,22.70
2018-04-23T12:16:30.649Z,22.70
2018-04-23T12:20:33.949Z,22.80
2018-04-23T12:24:37.265Z,22.80
2018-04-23T12:28:39.825Z,22.80
2018-04-23T12:32:42.501Z,22.90
2018-04-23T12:36:45.838Z,22.90
2018-04-23T12:40:49.125Z,22.80
2018-04-23T12:44:51.665Z,22.80
2018-04-23T12:48:54.306Z,22.80
2018-04-23T12:52:57.611Z,22.60
2018-04-23T12:57:00.920Z,22.60
2018-04-23T13:01:03.447Z,22.50
2018-04-23T13:05:05.981Z,22.50
2018-04-23T13:09:09.290Z,22.40
2018-04-23T13:13:11.824Z,22.30
2018-04-23T13:17:14.357Z,22.40
2018-04-23T13:21:17.632Z,22.50
2018-04-23T13:25:20.164Z,22.40
2018-04-23T13:29:22.712Z,22.50
2018-04-23T13:33:26.007Z,22.40
2018-04-23T13:37:28.540Z,22.30
2018-04-23T13:41:31.063Z,22.30
2018-04-23T13:45:33.597Z,22.50
2018-04-23T13:49:36.144Z,22.50
2018-04-23T13:53:39.564Z,22.40
2018-04-23T13:57:42.881Z,22.50
2018-04-23T14:01:45.400Z,22.50
2018-04-23T14:05:47.940Z,22.60
2018-04-23T14:09:51.240Z,22.80
2018-04-23T14:13:53.816Z,22.70
2018-04-23T14:17:57.141Z,22.60
2018-04-23T14:22:00.431Z,22.30
2018-04-23T14:26:02.984Z,22.30
2018-04-23T14:30:05.529Z,22.20
2018-04-23T14:34:08.063Z,22.10
2018-04-23T14:38:10.595Z,22.00
2018-04-23T14:42:13.140Z,21.80
2018-04-23T14:46:15.654Z,21.80
2018-04-23T14:50:18.201Z,21.70
2018-04-23T14:54:20.736Z,21.70
2018-04-23T14:58:23.285Z,21.50
2018-04-23T15:02:25.827Z,21.70
2018-04-23T15:06:28.349Z,21.80
2018-04-23T15:10:30.891Z,21.80
2018-04-23T15:14:34.187Z,21.90
2018-04-23T15:18:36.719Z,21.80
2018-04-23T15:22:39.258Z,21.90
2018-04-23T15:26:41.773Z,21.80
2018-04-23T15:30:44.312Z,21.80
2018-04-23T15:34:46.853Z,21.70
2018-04-23T15:38:49.387Z,21.70
2018-04-23T15:42:51.919Z,21.60
2018-04-23T15:46:54.436Z,21.50
2018-04-23T15:50:57.737Z,21.30
2018-04-23T15:55:01.027Z,21.20
2018-04-23T15:59:03.556Z,21.10
2018-04-23T16:03:06.099Z,21.00
2018-04-23T16:07:09.380Z,20.80
2018-04-23T16:11:11.912Z,20.70
2018-04-23T16:15:14.452Z,20.70
2018-04-23T16:19:16.985Z,20.50
2018-04-23T16:23:19.525Z,20.40
2018-04-23T16:27:22.036Z,20.30
2018-04-23T16:31:26.877Z,20.20
2018-04-23T16:35:29.618Z,20.20
2018-04-23T16:39:32.158Z,20.20
2018-04-23T16:43:34.695Z,20.20
2018-04-23T16:47:37.206Z,20.20
2018-04-23T16:51:40.509Z,20.20
2018-04-23T16:55:43.818Z,20.30
2018-04-23T16:59:47.128Z,20.30
2018-04-23T17:03:50.433Z,20.10
2018-04-23T17:07:53.767Z,20.10
2018-04-23T17:11:56.312Z,20.10
2018-04-23T17:15:59.616Z,19.90
2018-04-23T17:20:02.921Z,19.80
2018-04-23T17:24:05.456Z,19.70
2018-04-23T17:28:07.993Z,19.70
2018-04-23T17:32:10.507Z,19.60
2018-04-23T17:36:13.087Z,19.50
2018-04-23T17:40:15.617Z,19.40
2018-04-23T17:44:18.156Z,19.20
2018-04-23T17:48:20.694Z,19.10
2018-04-23T17:52:23.207Z,18.90
2018-04-23T17:56:26.503Z,18.80
2018-04-23T18:00:29.805Z,18.60
2018-04-23T18:04:33.102Z,18.60
2018-04-23T18:08:36.438Z,18.50
2018-04-23T18:12:38.965Z,18.50
2018-04-23T18:16:41.504Z,18.30
2018-04-23T18:20:44.036Z,18.20
2018-04-23T18:24:46.568Z,18.20
2018-04-23T18:28:49.109Z,18.00
2018-04-23T18:32:51.624Z,17.90
2018-04-23T18:36:54.925Z,17.70
2018-04-23T18:40:58.225Z,17.50
2018-04-23T18:45:01.537Z,17.40
2018-04-23T18:49:04.075Z,17.40
2018-04-23T18:53:06.591Z,17.30
2018-04-23T18:57:09.898Z,17.10
2018-04-23T19:01:13.250Z,17.00
2018-04-23T19:05:15.759Z,17.00
2018-04-23T19:09:18.292Z,17.00
2018-04-23T19:13:20.817Z,16.90
2018-04-23T19:17:23.362Z,16.80
2018-04-23T19:21:25.895Z,16.70
2018-04-23T19:25:28.439Z,16.60
2018-04-23T19:29:30.973Z,16.50
2018-04-23T19:33:33.485Z,16.40
2018-04-23T19:37:36.785Z,16.20
2018-04-23T19:41:40.090Z,16.20
2018-04-23T19:45:43.392Z,16.10
2018-04-23T19:49:46.712Z,15.90
2018-04-23T19:53:49.225Z,15.90
2018-04-23T19:57:51.761Z,15.80
2018-04-23T20:01:55.057Z,15.60
2018-04-23T20:05:58.351Z,15.60
2018-04-23T20:10:00.889Z,15.50
2018-04-23T20:14:03.430Z,15.50
2018-04-23T20:18:06.734Z,15.40
2018-04-23T20:22:09.725Z,15.40
2018-04-23T20:26:12.296Z,15.30
2018-04-23T20:30:14.976Z,15.30
2018-04-23T20:34:17.508Z,15.20
2018-04-23T20:38:20.024Z,15.10
2018-04-23T20:42:22.701Z,15.10
2018-04-23T20:46:26.528Z,15.00
2018-04-23T20:50:29.065Z,14.90
2018-04-23T20:54:32.358Z,14.70
2018-04-23T20:58:35.640Z,14.70
2018-04-23T21:02:38.171Z,14.60
2018-04-23T21:06:40.716Z,14.60
2018-04-23T21:10:43.248Z,14.50
2018-04-23T21:14:45.780Z,14.40
2018-04-23T21:18:48.305Z,14.30
2018-04-23T21:22:50.848Z,14.20
2018-04-23T21:26:53.392Z,14.10
2018-04-23T21:30:55.950Z,14.00
2018-04-23T21:34:59.256Z,13.80
2018-04-23T21:39:02.544Z,13.70
2018-04-23T21:43:05.850Z,13.70
2018-04-23T21:47:09.155Z,13.60
2018-04-23T21:51:11.710Z,13.50
2018-04-23T21:55:14.251Z,13.50
2018-04-23T21:59:16.775Z,13.40
2018-04-23T22:03:19.324Z,13.40
2018-04-23T22:07:21.865Z,13.30
2018-04-23T22:11:24.392Z,13.20
2018-04-23T22:15:26.925Z,13.10
2018-04-23T22:19:29.437Z,13.10
2018-04-23T22:23:31.977Z,13.00
2018-04-23T22:27:34.515Z,12.90
2018-04-23T22:31:37.050Z,12.80
2018-04-23T22:35:39.609Z,12.80
2018-04-23T22:39:42.148Z,12.70
2018-04-23T22:43:44.672Z,12.60
2018-04-23T22:47:47.204Z,12.50
2018-04-23T22:51:49.740Z,12.50
2018-04-23T22:55:53.039Z,12.30
2018-04-23T22:59:55.584Z,12.30
2018-04-23T23:03:58.100Z,12.30
2018-04-23T23:08:00.640Z,12.30
2018-04-23T23:12:03.199Z,12.20
2018-04-23T23:16:05.741Z,12.20
2018-04-23T23:20:09.040Z,12.20
2018-04-23T23:24:12.330Z,12.20
2018-04-23T23:28:14.868Z,12.10
2018-04-23T23:32:17.398Z,12.20
2018-04-23T23:36:19.931Z,12.10
2018-04-23T23:40:22.470Z,12.10
2018-04-23T23:44:24.985Z,12.10
2018-04-23T23:48:27.615Z,12.10
2018-04-23T23:52:30.145Z,12.10
2018-04-23T23:56:32.679Z,12.10
